Time;durP1;ratioP1;P1;durP2;ratioP2;P2;SDS_P1;SDS_P2;PMS_P1;PMS_P2;Temp;Humidity;BMP_temperature;BMP_pressure;BME280_temperature;BME280_humidity;BME280_pressure;Samples;Min_cycle;Max_cycle;Signal;HPM_P1;HPM_P2
2024/02/13 00:01:53;;;;;;;;;7.67;7.33;;;;;21.62;44.61;101530.09;6399728;22;45346;-76
2024/02/13 00:04:20;;;;;;;;;10.00;7.67;;;;;21.63;44.96;101528.28;6400389;22;45279;-76
2024/02/13 00:06:46;;;;;;;;;10.00;5.67;;;;;21.63;44.45;101528.28;6400050;22;45466;-75
2024/02/13 00:09:11;;;;;;;;;10.33;7.00;;;;;21.62;44.81;101530.09;6399149;22;46011;-76
2024/02/13 00:11:36;;;;;;;;;9.67;7.00;;;;;21.62;44.47;101531.94;6399323;22;45191;-76
2024/02/13 00:14:02;;;;;;;;;9.67;8.00;;;;;21.61;44.70;101532.91;6399985;22;45227;-75
2024/02/13 00:16:28;;;;;;;;;8.00;7.00;;;;;21.62;44.49;101529.28;6400024;22;45247;-75
2024/02/13 00:18:53;;;;;;;;;11.67;9.00;;;;;21.56;44.65;101519.31;6400098;22;45268;-75
2024/02/13 00:21:19;;;;;;;;;11.00;8.00;;;;;21.55;44.74;101520.31;6400336;22;45216;-76
2024/02/13 00:23:45;;;;;;;;;9.67;9.00;;;;;21.60;44.33;101521.47;6399638;22;45321;-76
2024/02/13 00:26:10;;;;;;;;;9.00;6.00;;;;;21.59;44.66;101529.59;6399514;22;45255;-76
2024/02/13 00:28:39;;;;;;;;;8.67;7.33;;;;;21.59;44.27;101522.50;6399824;22;46014;-76
2024/02/13 00:31:05;;;;;;;;;7.67;5.33;;;;;21.59;44.68;101526.94;6399816;22;45286;-76
2024/02/13 00:33:31;;;;;;;;;9.33;8.00;;;;;21.59;44.36;101538.38;6400439;22;45306;-75
2024/02/13 00:35:56;;;;;;;;;6.67;6.67;;;;;21.59;44.64;101529.59;6400208;22;45409;-75
2024/02/13 00:38:22;;;;;;;;;7.33;5.00;;;;;21.59;44.07;101526.94;6398929;22;46086;-75
2024/02/13 00:40:48;;;;;;;;;7.33;6.00;;;;;21.58;44.60;101530.56;6399755;22;45187;-76
2024/02/13 00:43:18;;;;;;;;;7.00;4.33;;;;;21.58;44.61;101539.34;6400361;22;45223;-76
2024/02/13 00:45:43;;;;;;;;;6.33;6.33;;;;;21.58;44.12;101535.88;6399787;22;45330;-76
2024/02/13 00:48:09;;;;;;;;;7.00;7.00;;;;;21.57;44.49;101545.63;6399834;22;45405;-76
2024/02/13 00:50:35;;;;;;;;;8.67;7.67;;;;;21.57;44.50;101536.88;6399539;22;45272;-76
2024/02/13 00:53:01;;;;;;;;;11.33;7.33;;;;;21.48;44.33;101523.59;6399492;22;45287;-75
2024/02/13 00:55:27;;;;;;;;;8.67;8.33;;;;;21.56;44.33;101541.34;6399545;22;45423;-75
2024/02/13 00:57:52;;;;;;;;;9.33;8.33;;;;;21.56;44.56;101544.00;6399445;22;47177;-76
2024/02/13 01:00:18;;;;;;;;;6.33;5.67;;;;;21.48;44.04;101520.13;6400120;22;45227;-75
2024/02/13 01:02:43;;;;;;;;;9.33;6.00;;;;;21.48;44.36;101534.19;6400243;22;45291;-75
2024/02/13 01:05:09;;;;;;;;;6.67;6.67;;;;;21.56;44.43;101545.81;6399651;22;45214;-76
2024/02/13 01:07:35;;;;;;;;;6.00;6.00;;;;;21.27;44.05;101503.66;6398921;22;45342;-75
2024/02/13 01:10:01;;;;;;;;;7.67;5.33;;;;;21.54;44.33;101537.19;6399236;22;45299;-76
2024/02/13 01:12:26;;;;;;;;;7.00;6.00;;;;;21.49;44.00;101535.03;6399919;22;45221;-75
2024/02/13 01:14:52;;;;;;;;;7.00;7.00;;;;;21.54;44.34;101547.78;6400176;22;45348;-75
2024/02/13 01:17:17;;;;;;;;;9.67;8.00;;;;;21.47;44.30;101537.81;6399759;22;45259;-75
2024/02/13 01:19:44;;;;;;;;;6.00;6.00;;;;;21.54;43.78;101548.63;6399891;22;45318;-75
2024/02/13 01:22:11;;;;;;;;;10.00;7.33;;;;;21.54;43.81;101555.72;6399179;22;45313;-76
2024/02/13 01:24:36;;;;;;;;;9.67;8.67;;;;;21.52;43.95;101551.41;6371189;22;45310;-76
2024/02/13 01:27:02;;;;;;;;;7.00;6.67;;;;;21.54;44.22;101561.84;6399222;22;46242;-76
2024/02/13 01:29:28;;;;;;;;;8.00;6.00;;;;;21.46;43.79;101549.41;6399824;22;45154;-75
2024/02/13 01:31:53;;;;;;;;;9.67;8.33;;;;;21.45;43.61;101552.19;6399406;22;45155;-75
2024/02/13 01:34:18;;;;;;;;;8.67;7.00;;;;;21.52;44.03;101569.09;6399457;22;45141;-74
2024/02/13 01:36:44;;;;;;;;;7.00;7.00;;;;;21.51;43.70;101563.00;6398688;22;46069;-76
2024/02/13 01:39:09;;;;;;;;;8.00;7.00;;;;;21.47;44.01;101571.41;6400643;22;45534;-75
2024/02/13 01:41:34;;;;;;;;;9.33;6.67;;;;;21.50;43.79;101571.94;6401319;22;45363;-75
2024/02/13 01:44:03;;;;;;;;;10.67;8.00;;;;;21.51;43.72;101572.75;6400970;22;45430;-74
2024/02/13 01:46:29;;;;;;;;;8.33;7.00;;;;;21.50;43.83;101574.56;6400600;22;46000;-76
2024/02/13 01:48:58;;;;;;;;;10.67;8.67;;;;;21.50;43.59;101574.56;6400738;22;45334;-74
2024/02/13 01:51:27;;;;;;;;;4.00;4.00;;;;;21.47;43.85;101571.41;6400371;22;45231;-75
2024/02/13 01:53:58;;;;;;;;;6.33;6.33;;;;;21.50;43.40;101569.28;6400530;22;45269;-75
2024/02/13 01:56:27;;;;;;;;;6.67;6.67;;;;;21.51;43.95;101564.81;6400254;22;47664;-75
2024/02/13 01:58:53;;;;;;;;;7.67;6.67;;;;;21.51;43.39;101564.81;6400808;22;45307;-76
2024/02/13 02:01:18;;;;;;;;;8.33;5.00;;;;;21.51;43.79;101563.00;6400635;22;45437;-75
2024/02/13 02:03:44;;;;;;;;;7.67;7.67;;;;;21.47;43.42;101552.88;6400482;22;45326;-76
2024/02/13 02:06:10;;;;;;;;;7.67;6.67;;;;;21.40;43.65;101544.75;6400000;22;46018;-75
2024/02/13 02:08:35;;;;;;;;;8.33;7.00;;;;;21.49;43.82;101559.66;6372547;22;45262;-75
2024/02/13 02:11:00;;;;;;;;;9.33;6.67;;;;;21.42;43.81;101549.91;6401129;22;45439;-76
2024/02/13 02:13:29;;;;;;;;;7.00;5.33;;;;;21.47;43.43;101555.50;6400697;22;45383;-75
2024/02/13 02:15:55;;;;;;;;;9.67;7.67;;;;;21.40;43.31;101544.75;6400374;22;47110;-75
2024/02/13 02:18:21;;;;;;;;;9.00;9.00;;;;;21.36;43.62;101543.41;6400212;22;45306;-75
2024/02/13 02:20:47;;;;;;;;;12.67;8.33;;;;;21.49;43.69;101562.31;6400051;22;45291;-76
2024/02/13 02:23:13;;;;;;;;;8.33;7.00;;;;;21.49;43.46;101561.50;6400585;22;45344;-75
2024/02/13 02:25:38;;;;;;;;;8.67;6.33;;;;;21.45;43.31;101554.84;6400393;22;46189;-76
2024/02/13 02:28:04;;;;;;;;;5.00;4.67;;;;;21.37;43.29;101545.91;6399128;22;45290;-75
2024/02/13 02:30:29;;;;;;;;;8.00;6.33;;;;;21.49;43.37;101562.31;6399854;22;45221;-75
2024/02/13 02:32:55;;;;;;;;;10.00;6.67;;;;;21.49;43.74;101564.97;6400607;22;45204;-75
2024/02/13 02:35:20;;;;;;;;;7.00;7.00;;;;;21.48;43.64;101560.66;6399982;22;52468;-75
2024/02/13 02:37:50;;;;;;;;;8.00;7.00;;;;;21.48;43.19;101562.47;6400374;22;45215;-76
2024/02/13 02:40:18;;;;;;;;;10.67;7.67;;;;;21.47;43.17;101564.28;6400961;22;45263;-76
2024/02/13 02:42:49;;;;;;;;;8.33;8.33;;;;;21.47;43.45;101556.34;6400406;22;45358;-76
2024/02/13 02:45:17;;;;;;;;;7.00;7.00;;;;;21.47;43.54;101558.16;6371803;22;48466;-75
2024/02/13 02:47:42;;;;;;;;;11.33;9.00;;;;;21.48;43.14;101557.19;6400126;22;45346;-75
2024/02/13 02:50:10;;;;;;;;;6.67;5.67;;;;;21.42;43.62;101553.34;6400676;22;45284;-75
2024/02/13 02:52:36;;;;;;;;;7.33;6.67;;;;;21.39;43.67;101548.41;6400420;22;45203;-76
2024/02/13 02:55:01;;;;;;;;;8.00;8.00;;;;;21.42;43.56;101547.25;6400585;22;45937;-76
2024/02/13 02:57:26;;;;;;;;;7.00;6.00;;;;;21.35;43.08;101533.81;6400710;22;45306;-76
2024/02/13 02:59:52;;;;;;;;;8.67;5.00;;;;;;;;6400701;22;45517;-75
2024/02/13 03:02:17;;;;;;;;;5.67;5.67;;;;;21.36;43.36;101548.72;6400620;22;45255;-77
2024/02/13 03:04:42;;;;;;;;;5.33;5.00;;;;;21.45;43.21;101571.56;6400194;22;45947;-76
2024/02/13 03:07:08;;;;;;;;;7.33;6.00;;;;;21.33;43.36;101547.22;6400766;22;45148;-75
2024/02/13 03:09:33;;;;;;;;;6.00;5.67;;;;;21.38;43.45;101549.38;6400826;22;45223;-76
2024/02/13 03:11:59;;;;;;;;;11.33;6.33;;;;;21.37;42.96;101553.84;6400263;22;51385;-76
2024/02/13 03:14:25;;;;;;;;;5.33;5.00;;;;;21.46;43.11;101562.66;6400264;22;47073;-76
2024/02/13 03:16:50;;;;;;;;;5.00;5.00;;;;;21.15;42.84;101505.78;6399995;22;45221;-75
2024/02/13 03:19:16;;;;;;;;;7.67;5.33;;;;;21.36;43.05;101541.59;6400336;22;45338;-75
2024/02/13 03:21:42;;;;;;;;;6.67;4.67;;;;;21.46;42.99;101556.53;6400153;22;54805;-76
2024/02/13 03:24:08;;;;;;;;;7.33;6.67;;;;;21.46;43.28;101548.59;6399959;22;46529;-76
2024/02/13 03:26:33;;;;;;;;;5.33;5.33;;;;;21.39;43.12;101540.47;6400018;22;45345;-76
2024/02/13 03:28:59;;;;;;;;;7.67;7.67;;;;;21.42;42.85;101545.41;6400783;22;45696;-75
2024/02/13 03:31:24;;;;;;;;;7.67;7.00;;;;;21.34;42.86;101534.81;6371454;22;45383;-76
2024/02/13 03:33:49;;;;;;;;;5.67;5.67;;;;;;;;6400060;22;46933;-76
2024/02/13 03:36:16;;;;;;;;;6.00;5.67;;;;;21.40;43.32;101545.59;6400732;22;45355;-76
2024/02/13 03:38:43;;;;;;;;;6.33;5.33;;;;;21.35;43.12;101539.94;6399403;22;45293;-75
2024/02/13 03:41:09;;;;;;;;;7.00;7.00;;;;;21.31;43.29;101521.88;6400540;22;45223;-75
2024/02/13 03:43:36;;;;;;;;;8.33;8.00;;;;;21.44;42.83;101550.56;6399856;22;46915;-76
2024/02/13 03:46:01;;;;;;;;;8.33;6.33;;;;;21.45;43.18;101549.56;6400011;22;45414;-76
2024/02/13 03:48:26;;;;;;;;;5.00;5.00;;;;;21.39;43.10;101535.16;6399933;22;45331;-76
2024/02/13 03:50:52;;;;;;;;;4.00;4.00;;;;;21.45;42.74;101542.44;6400361;22;45353;-76
2024/02/13 03:53:17;;;;;;;;;7.33;5.67;;;;;21.45;42.74;101544.25;6399829;22;46229;-75
2024/02/13 03:55:42;;;;;;;;;4.67;4.67;;;;;21.44;43.14;101545.28;6400305;22;45262;-75
2024/02/13 03:58:08;;;;;;;;;5.00;5.00;;;;;21.39;43.00;101537.81;6400150;22;45319;-76
2024/02/13 04:00:33;;;;;;;;;3.33;3.33;;;;;21.36;42.76;101523.06;6398371;22;58380;-75
2024/02/13 04:02:58;;;;;;;;;7.67;7.00;;;;;21.37;42.67;101526.53;6399705;22;45306;-75
2024/02/13 04:05:24;;;;;;;;;6.67;5.33;;;;;21.37;42.84;101531.81;6400129;22;49067;-75
2024/02/13 04:07:50;;;;;;;;;8.67;7.33;;;;;21.43;43.23;101544.44;6400009;22;45184;-75
2024/02/13 04:10:15;;;;;;;;;4.33;4.33;;;;;21.32;43.28;101527.00;6400240;22;45156;-75
2024/02/13 04:12:41;;;;;;;;;7.67;6.00;;;;;21.17;43.15;101497.66;6399689;22;46903;-75
2024/02/13 04:15:06;;;;;;;;;8.33;5.67;;;;;;;;6400371;22;45133;-75
2024/02/13 04:17:31;;;;;;;;;6.33;6.33;;;;;21.42;42.80;101536.66;6400568;22;45165;-75
2024/02/13 04:19:57;;;;;;;;;4.33;4.33;;;;;21.41;42.60;101530.53;6371625;22;45284;-76
2024/02/13 04:22:22;;;;;;;;;7.00;6.00;;;;;21.43;42.75;101539.13;6399516;22;52463;-76
2024/02/13 04:24:47;;;;;;;;;6.33;6.33;;;;;21.43;42.88;101539.13;6399831;22;45143;-75
2024/02/13 04:27:13;;;;;;;;;6.33;6.00;;;;;21.43;42.70;101539.13;6400338;22;45210;-76
2024/02/13 04:29:43;;;;;;;;;8.33;5.67;;;;;21.44;42.89;101542.63;6399590;22;45533;-76
2024/02/13 04:32:09;;;;;;;;;6.00;6.00;;;;;;;;6399700;22;46127;-76
2024/02/13 04:34:34;;;;;;;;;8.33;5.67;;;;;21.43;42.94;101539.13;6399652;22;45290;-76
2024/02/13 04:37:00;;;;;;;;;7.67;7.33;;;;;21.38;42.35;101541.44;6400133;22;45318;-75
2024/02/13 04:39:25;;;;;;;;;7.00;4.67;;;;;;;;6400332;22;45274;-76
2024/02/13 04:41:50;;;;;;;;;6.67;6.00;;;;;21.40;42.94;101539.44;6399534;22;46045;-75
2024/02/13 04:44:16;;;;;;;;;6.67;5.00;;;;;21.44;42.28;101543.47;6399615;22;46981;-75
2024/02/13 04:46:42;;;;;;;;;5.67;5.67;;;;;21.38;42.86;101536.13;6400033;22;45236;-75
2024/02/13 04:49:07;;;;;;;;;5.67;4.00;;;;;21.42;42.44;101534.00;6399368;22;52393;-76
2024/02/13 04:51:32;;;;;;;;;6.00;3.67;;;;;21.37;42.76;101527.34;6400010;22;46242;-74
2024/02/13 04:53:58;;;;;;;;;4.00;4.00;;;;;21.36;42.75;101525.72;6399875;22;47546;-75
2024/02/13 04:56:26;;;;;;;;;5.00;4.67;;;;;21.31;42.72;101528.00;6400140;22;45230;-75
2024/02/13 04:58:55;;;;;;;;;6.00;4.33;;;;;21.44;42.78;101546.09;6399223;22;45322;-75
2024/02/13 05:01:22;;;;;;;;;4.33;4.33;;;;;21.43;42.35;101544.44;6399297;22;46385;-75
2024/02/13 05:08:56;;;;;;;;;4.67;4.00;;;;;;;;6400079;22;45153;-75
2024/02/13 05:11:23;;;;;;;;;6.00;4.67;;;;;21.39;42.85;101543.09;6399274;22;46047;-75
2024/02/13 05:13:49;;;;;;;;;7.00;5.33;;;;;21.34;42.37;101529.50;6398220;22;45298;-76
2024/02/13 05:16:14;;;;;;;;;5.33;4.00;;;;;21.44;42.50;101547.91;6399578;22;45670;-75
2024/02/13 05:18:40;;;;;;;;;5.67;4.33;;;;;21.43;42.74;101552.38;6399447;22;45482;-75
2024/02/13 05:21:05;;;;;;;;;6.00;4.33;;;;;21.43;42.69;101547.09;6399748;22;46098;-76
2024/02/13 05:23:31;;;;;;;;;4.67;4.67;;;;;21.42;42.84;101542.75;6399271;22;45290;-76
2024/02/13 05:25:57;;;;;;;;;4.67;4.67;;;;;21.38;42.40;101542.28;6399892;22;45327;-76
2024/02/13 05:28:22;;;;;;;;;5.00;5.00;;;;;21.36;42.42;101536.31;6399091;22;45345;-76
2024/02/13 05:30:48;;;;;;;;;6.67;5.67;;;;;21.39;42.32;101538.63;6370780;22;48145;-75
2024/02/13 05:33:13;;;;;;;;;5.67;5.67;;;;;21.42;42.38;101544.59;6399240;22;45468;-75
2024/02/13 05:35:41;;;;;;;;;4.33;4.33;;;;;21.42;42.44;101541.97;6370642;22;55481;-76
2024/02/13 05:38:06;;;;;;;;;6.00;6.00;;;;;21.41;42.62;101543.78;6399187;22;45423;-76
2024/02/13 05:40:32;;;;;;;;;4.67;4.67;;;;;21.42;42.82;101544.59;6399146;22;46119;-76
2024/02/13 05:42:57;;;;;;;;;7.33;4.00;;;;;21.35;42.83;101539.09;6399560;22;45247;-76
2024/02/13 05:45:22;;;;;;;;;5.00;5.00;;;;;21.29;42.62;101525.50;6399831;22;45240;-75
2024/02/13 05:47:48;;;;;;;;;6.00;4.33;;;;;21.42;42.55;101536.66;6399230;22;45417;-76
2024/02/13 05:50:16;;;;;;;;;5.00;5.00;;;;;21.42;42.38;101545.41;6399001;22;46103;-76
2024/02/13 05:52:41;;;;;;;;;4.67;4.33;;;;;;;;6399207;22;45228;-75
2024/02/13 05:55:08;;;;;;;;;4.67;4.67;;;;;21.37;42.33;101542.41;6399669;22;45426;-75
2024/02/13 05:57:34;;;;;;;;;6.00;4.33;;;;;21.36;42.21;101536.31;6398845;22;45509;-75
2024/02/13 05:59:59;;;;;;;;;3.00;1.67;;;;;21.36;42.77;101527.53;6398846;22;45370;-75
2024/02/13 06:02:30;;;;;;;;;6.67;4.33;;;;;21.34;42.33;101529.50;6399591;22;45302;-75
2024/02/13 06:04:55;;;;;;;;;5.33;4.33;;;;;21.40;42.53;101542.94;6399385;22;45309;-76
2024/02/13 06:07:20;;;;;;;;;5.67;4.67;;;;;21.40;42.46;101536.81;6399525;22;45421;-75
2024/02/13 06:09:46;;;;;;;;;5.00;4.67;;;;;21.39;42.41;101535.97;6399372;22;45325;-75
2024/02/13 06:12:12;;;;;;;;;8.00;5.00;;;;;21.42;42.16;101544.59;6398549;22;52630;-76
2024/02/13 06:14:38;;;;;;;;;3.67;1.67;;;;;21.13;42.72;101488.41;6399509;22;45441;-76
2024/02/13 06:17:04;;;;;;;;;6.00;4.67;;;;;21.42;42.30;101536.66;6398181;22;45402;-75
2024/02/13 06:19:29;;;;;;;;;5.67;3.67;;;;;21.42;42.30;101540.13;6398916;22;45339;-73
2024/02/13 06:21:54;;;;;;;;;6.67;5.67;;;;;21.36;42.49;101533.66;6370501;22;45315;-75
2024/02/13 06:24:20;;;;;;;;;5.33;3.33;;;;;21.36;42.39;101531.00;6399961;22;45316;-76
2024/02/13 06:26:48;;;;;;;;;4.00;4.00;;;;;21.42;42.61;101544.59;6400163;22;45195;-75
2024/02/13 06:29:17;;;;;;;;;4.00;4.00;;;;;21.42;42.36;101534.81;6400287;22;46111;-76
2024/02/13 06:31:42;;;;;;;;;4.67;4.00;;;;;21.42;42.24;101531.38;6400594;22;45392;-75
2024/02/13 06:34:08;;;;;;;;;4.67;3.67;;;;;21.31;42.17;101521.88;6400479;22;50931;-75
2024/02/13 06:36:33;;;;;;;;;5.33;4.33;;;;;21.35;42.44;101529.34;6400736;22;45430;-76
2024/02/13 06:38:58;;;;;;;;;3.00;1.67;;;;;21.32;42.84;101527.00;6400739;22;45303;-82
2024/02/13 06:41:24;;;;;;;;;5.67;4.33;;;;;21.39;42.26;101524.56;6400700;22;45270;-76
2024/02/13 06:43:50;;;;;;;;;6.00;5.33;;;;;21.42;42.23;101534.81;6400932;22;45341;-75
2024/02/13 06:46:16;;;;;;;;;3.67;3.67;;;;;21.42;42.77;101534.81;6400818;22;45473;-78
2024/02/13 06:48:42;;;;;;;;;4.00;3.67;;;;;21.36;42.29;101519.59;6400162;22;46157;-78
2024/02/13 06:51:17;;;;;;;;;6.33;5.00;;;;;;;;6400203;22;45213;-75
2024/02/13 06:53:43;;;;;;;;;5.33;3.67;;;;;21.44;42.32;101539.97;6399200;22;45204;-76
2024/02/13 06:56:09;;;;;;;;;5.67;5.00;;;;;21.44;42.59;101537.31;6398980;22;45473;-73
2024/02/13 06:58:35;;;;;;;;;2.67;1.67;;;;;21.45;42.96;101545.09;6399774;22;47275;-72
2024/02/13 07:01:02;;;;;;;;;5.33;4.00;;;;;21.43;43.15;101544.44;6400205;22;45323;-73
2024/02/13 07:03:31;;;;;;;;;4.00;4.00;;;;;21.35;43.20;101539.09;6400524;22;45429;-73
2024/02/13 07:05:57;;;;;;;;;2.67;2.67;;;;;21.49;43.80;101549.06;6400318;22;45366;-74
2024/02/13 07:08:22;;;;;;;;;4.67;3.67;;;;;21.52;44.02;101546.13;6399505;22;46380;-74
2024/02/13 07:10:48;;;;;;;;;6.67;3.67;;;;;21.54;43.76;101553.09;6399340;22;45150;-72
2024/02/13 07:13:13;;;;;;;;;4.33;3.67;;;;;21.57;43.95;101555.41;6400031;22;45169;-74
2024/02/13 07:15:38;;;;;;;;;3.67;3.67;;;;;21.57;44.37;101552.75;6400368;22;47253;-73
2024/02/13 07:18:06;;;;;;;;;3.33;3.33;;;;;21.54;44.30;101548.63;6399562;22;53226;-74
2024/02/13 07:20:32;;;;;;;;;5.33;4.67;;;;;21.60;44.70;101560.38;6400080;22;45382;-82
2024/02/13 07:22:58;;;;;;;;;4.67;4.67;;;;;21.65;44.69;101575.81;6400262;22;45382;-70
2024/02/13 07:25:26;;;;;;;;;7.67;5.33;;;;;21.60;44.29;101569.16;6400016;22;45300;-74
2024/02/13 07:27:52;;;;;;;;;5.33;4.00;;;;;21.65;44.18;101575.81;6400436;22;45329;-76
2024/02/13 07:30:18;;;;;;;;;5.50;4.50;;;;;21.51;43.83;101560.34;6400614;22;45249;-75
2024/02/13 07:32:45;;;;;;;;;4.67;4.67;;;;;21.58;43.86;101579.06;6385798;22;45461;-74
2024/02/13 07:35:11;;;;;;;;;4.67;3.67;;;;;21.68;43.72;101589.53;6352311;22;45427;-76
2024/02/13 07:37:36;;;;;;;;;4.00;4.00;;;;;21.68;43.72;101594.84;6393770;22;46773;-74
2024/02/13 07:40:02;;;;;;;;;5.00;4.00;;;;;21.60;43.67;101578.91;6394492;22;45464;-76
2024/02/13 07:42:28;;;;;;;;;8.00;4.67;;;;;21.69;43.35;101599.16;6394676;22;45961;-72
2024/02/13 07:44:55;;;;;;;;;6.00;4.67;;;;;21.69;43.74;101599.16;6394301;22;45396;-75
2024/02/13 07:47:21;;;;;;;;;8.00;5.33;;;;;21.66;43.33;101590.69;6394936;22;46121;-75
2024/02/13 07:49:48;;;;;;;;;2.67;2.67;;;;;21.58;43.51;101587.03;6394891;22;45319;-74
2024/02/13 07:52:14;;;;;;;;;3.67;3.33;;;;;21.69;43.75;101606.25;6395179;22;45353;-75
2024/02/13 07:54:39;;;;;;;;;4.00;4.00;;;;;21.68;43.43;101605.44;6395470;22;45669;-73
2024/02/13 07:57:05;;;;;;;;;6.00;5.67;;;;;21.63;43.49;101603.25;6365883;22;47015;-75
2024/02/13 07:59:30;;;;;;;;;4.67;4.00;;;;;21.68;43.15;101612.53;6394877;22;45986;-77
2024/02/13 08:01:56;;;;;;;;;4.33;3.67;;;;;21.58;43.03;101605.56;6393895;22;45275;-74
2024/02/13 08:04:21;;;;;;;;;4.67;4.67;;;;;21.63;43.74;101616.50;6393906;22;45425;-75
2024/02/13 08:06:47;;;;;;;;;5.00;5.00;;;;;21.66;43.76;101618.00;6394093;22;45928;-75
2024/02/13 08:09:14;;;;;;;;;4.33;4.00;;;;;21.69;43.78;101623.00;6394964;22;45406;-75
2024/02/13 08:11:41;;;;;;;;;4.67;4.00;;;;;21.60;43.26;101605.38;6394357;22;45682;-73
2024/02/13 08:14:09;;;;;;;;;1.67;1.67;;;;;21.68;43.54;101623.97;6394221;22;45412;-75
2024/02/13 08:16:35;;;;;;;;;5.33;3.33;;;;;21.62;43.43;101627.25;6393321;22;46958;-74
2024/02/13 08:19:00;;;;;;;;;6.67;4.33;;;;;21.62;43.56;101625.41;6394033;22;45382;-75
2024/02/13 08:21:26;;;;;;;;;5.33;4.00;;;;;21.66;43.55;101631.25;6394063;22;45814;-74
2024/02/13 08:23:51;;;;;;;;;4.67;3.33;;;;;21.65;43.55;101631.41;6395060;22;50717;-74
2024/02/13 08:26:16;;;;;;;;;3.67;2.67;;;;;21.62;43.61;101625.41;6395010;22;46266;-75
2024/02/13 08:28:43;;;;;;;;;5.00;4.67;;;;;21.64;43.09;101627.94;6394753;22;45323;-75
2024/02/13 08:31:09;;;;;;;;;5.33;3.67;;;;;21.65;43.82;101613.69;6395340;22;45413;-73
2024/02/13 08:33:35;;;;;;;;;5.00;5.00;;;;;21.60;44.00;101610.69;6394946;22;45930;-74
2024/02/13 08:36:02;;;;;;;;;5.00;4.00;;;;;21.61;44.15;101599.13;6393873;22;45964;-74
2024/02/13 08:38:28;;;;;;;;;1.00;1.00;;;;;21.63;43.47;101611.22;6393523;22;45709;-74
2024/02/13 08:40:53;;;;;;;;;5.00;5.00;;;;;21.63;43.27;101619.16;6394372;22;45362;-72
2024/02/13 08:43:19;;;;;;;;;4.67;4.67;;;;;21.50;43.53;101600.22;6394297;22;45329;-72
2024/02/13 08:45:44;;;;;;;;;4.67;4.67;;;;;21.60;43.37;101619.47;6394675;22;46890;-72
2024/02/13 08:48:09;;;;;;;;;4.67;4.33;;;;;21.60;43.22;101610.69;6394418;22;45366;-72
2024/02/13 08:50:35;;;;;;;;;5.67;3.67;;;;;21.58;43.57;101610.84;6393870;22;45275;-72
2024/02/13 08:53:01;;;;;;;;;5.33;3.33;;;;;21.55;43.75;101602.38;6394924;22;45431;-72
2024/02/13 08:55:26;;;;;;;;;3.00;0.67;;;;;21.60;43.20;101621.28;6393924;22;46589;-72
2024/02/13 08:57:52;;;;;;;;;4.00;4.00;;;;;21.58;43.44;101616.16;6394295;22;45390;-72
2024/02/13 09:00:18;;;;;;;;;6.00;6.00;;;;;21.32;43.38;101573.81;6366285;22;45846;-72
2024/02/13 09:02:45;;;;;;;;;4.00;3.00;;;;;21.60;43.13;101614.16;6394646;22;45484;-73
2024/02/13 09:05:12;;;;;;;;;4.33;3.67;;;;;21.60;43.49;101608.03;6394006;22;46320;-72
2024/02/13 09:07:38;;;;;;;;;6.67;5.00;;;;;21.61;43.50;101604.41;6394307;22;45444;-73
2024/02/13 09:10:05;;;;;;;;;4.67;2.67;;;;;21.58;43.12;101600.25;6394172;22;45358;-72
2024/02/13 09:12:30;;;;;;;;;4.67;3.33;;;;;21.59;43.26;101603.75;6394263;22;45397;-73
2024/02/13 09:14:58;;;;;;;;;4.00;3.67;;;;;21.59;43.70;101601.09;6393971;22;47050;-72
2024/02/13 09:17:24;;;;;;;;;3.67;2.67;;;;;21.56;43.61;101602.25;6393646;22;45296;-72
2024/02/13 09:19:49;;;;;;;;;4.33;4.33;;;;;21.51;43.19;101584.19;6394153;22;45280;-73
2024/02/13 09:22:14;;;;;;;;;6.33;4.00;;;;;21.50;43.54;101571.09;6394465;22;45414;-70
2024/02/13 09:24:44;;;;;;;;;5.00;4.00;;;;;21.56;43.23;101574.94;6394358;22;46100;-72
2024/02/13 09:27:10;;;;;;;;;4.00;3.00;;;;;21.52;43.49;101582.34;6394248;22;45221;-72
2024/02/13 09:29:36;;;;;;;;;5.33;5.33;;;;;21.56;43.71;101577.56;6393790;22;45402;-72
2024/02/13 09:32:02;;;;;;;;;5.67;3.67;;;;;21.58;43.17;101583.53;6394225;22;46480;-72
2024/02/13 09:34:28;;;;;;;;;4.67;2.67;;;;;21.54;43.36;101583.03;6393214;22;47035;-72
2024/02/13 09:36:53;;;;;;;;;4.00;4.00;;;;;21.30;43.70;101542.22;6394170;22;45802;-73
2024/02/13 09:39:19;;;;;;;;;4.33;2.67;;;;;21.59;42.99;101587.84;6393982;22;45616;-72
2024/02/13 09:41:45;;;;;;;;;8.33;3.33;;;;;21.57;42.89;101585.34;6394790;22;45432;-72
2024/02/13 09:44:12;;;;;;;;;7.00;4.33;;;;;21.60;43.11;101585.03;6394286;22;46183;-72
2024/02/13 09:46:38;;;;;;;;;3.00;3.00;;;;;21.60;43.42;101587.69;6365140;22;45503;-72
2024/02/13 09:49:07;;;;;;;;;5.00;3.67;;;;;21.54;43.53;101577.75;6393756;22;45403;-72
2024/02/13 09:51:33;;;;;;;;;2.33;1.00;;;;;21.62;42.98;101579.59;6393649;22;45341;-71
2024/02/13 09:54:03;;;;;;;;;4.00;4.00;;;;;21.63;43.43;101584.72;6393896;22;46070;-72
2024/02/13 09:56:28;;;;;;;;;4.00;4.00;;;;;21.58;43.47;101573.78;6393278;22;45731;-72
2024/02/13 09:58:54;;;;;;;;;2.67;2.67;;;;;21.60;43.00;101577.09;6365594;22;45355;-72
2024/02/13 10:01:19;;;;;;;;;4.33;4.33;;;;;21.64;43.01;101577.63;6395831;22;45359;-72
2024/02/13 10:03:45;;;;;;;;;3.67;3.67;;;;;21.65;43.32;101589.84;6394286;22;57399;-73
2024/02/13 10:06:13;;;;;;;;;5.67;4.00;;;;;21.65;43.42;101583.75;6395589;22;45335;-72
2024/02/13 10:08:39;;;;;;;;;4.00;4.00;;;;;21.66;43.56;101588.03;6395732;22;45843;-71
2024/02/13 10:11:11;;;;;;;;;4.00;2.67;;;;;21.67;43.32;101593.19;6394997;22;45370;-72
2024/02/13 10:13:40;;;;;;;;;5.67;3.33;;;;;21.68;43.59;101592.19;6395006;22;47175;-72
2024/02/13 10:16:18;;;;;;;;;6.33;4.33;;;;;21.68;43.29;101592.19;6366163;22;45676;-71
2024/02/13 10:18:44;;;;;;;;;3.67;3.67;;;;;21.67;42.98;101581.75;6366682;22;45404;-72
2024/02/13 10:21:11;;;;;;;;;3.00;3.00;;;;;21.66;42.95;101585.38;6395088;22;45230;-72
2024/02/13 10:23:36;;;;;;;;;4.00;3.00;;;;;21.70;42.93;101586.75;6395171;22;46016;-72
2024/02/13 10:26:06;;;;;;;;;3.33;3.33;;;;;21.45;43.49;101542.44;6394477;22;45306;-72
2024/02/13 10:28:33;;;;;;;;;5.00;4.67;;;;;21.70;43.09;101570.84;6395853;22;45437;-72
2024/02/13 10:30:59;;;;;;;;;4.00;3.67;;;;;21.71;42.76;101561.91;6394786;22;45436;-72
2024/02/13 10:33:24;;;;;;;;;3.33;3.00;;;;;21.71;42.81;101561.91;6394666;22;45288;-72
2024/02/13 10:35:55;;;;;;;;;5.00;3.00;;;;;21.71;42.74;101562.75;6395300;22;45284;-72
2024/02/13 10:38:27;;;;;;;;;5.00;3.00;;;;;21.70;43.29;101561.06;6395463;22;45393;-73
2024/02/13 10:40:55;;;;;;;;;3.00;3.00;;;;;21.69;43.11;101563.88;6395071;22;45426;-72
2024/02/13 10:43:23;;;;;;;;;3.00;2.67;;;;;21.72;42.78;101571.50;6395135;22;45975;-72
2024/02/13 10:45:50;;;;;;;;;5.00;3.00;;;;;21.69;42.94;101563.88;6394818;22;45225;-72
2024/02/13 10:48:33;;;;;;;;;6.00;5.00;;;;;21.64;42.85;101559.06;6394884;22;45366;-72
2024/02/13 10:51:00;;;;;;;;;4.67;4.00;;;;;21.74;43.11;101572.19;6394715;22;45506;-72
2024/02/13 10:53:27;;;;;;;;;2.00;2.00;;;;;21.76;42.86;101580.78;6394594;22;46657;-72
2024/02/13 10:55:53;;;;;;;;;5.00;4.00;;;;;21.75;42.78;101571.19;6394950;22;45606;-72
2024/02/13 10:58:21;;;;;;;;;2.67;2.67;;;;;21.66;43.30;101553.59;6395355;22;45666;-72
2024/02/13 11:00:50;;;;;;;;;3.00;2.33;;;;;21.70;42.96;101574.31;6394610;22;45541;-72
2024/02/13 11:03:16;;;;;;;;;6.00;4.33;;;;;21.71;43.20;101572.50;6394416;22;45508;-73
2024/02/13 11:05:42;;;;;;;;;4.00;3.00;;;;;21.76;43.44;101572.00;6395834;22;45386;-72
2024/02/13 11:08:07;;;;;;;;;3.67;3.33;;;;;21.75;43.15;101579.16;6395491;22;45382;-72
2024/02/13 11:10:35;;;;;;;;;4.00;4.00;;;;;21.67;42.71;101571.16;6394923;22;45395;-72
2024/02/13 11:13:03;;;;;;;;;3.67;3.67;;;;;21.70;43.24;101570.84;6394932;22;46084;-72
2024/02/13 11:15:30;;;;;;;;;5.00;3.67;;;;;21.73;43.01;101575.81;6394318;22;45362;-72
2024/02/13 11:17:57;;;;;;;;;4.00;3.00;;;;;21.72;43.20;101572.34;6394367;22;45398;-72
2024/02/13 11:20:27;;;;;;;;;4.67;3.00;;;;;21.75;42.81;101579.16;6395490;22;45330;-72
2024/02/13 11:22:55;;;;;;;;;4.33;4.33;;;;;21.73;43.06;101568.69;6394368;22;46306;-72
2024/02/13 11:25:28;;;;;;;;;3.00;2.00;;;;;21.75;42.69;101565.91;6394958;22;45405;-72
2024/02/13 11:28:08;;;;;;;;;1.67;1.67;;;;;21.68;42.94;101557.75;6394615;22;45441;-72
2024/02/13 11:30:35;;;;;;;;;3.67;3.67;;;;;21.69;43.04;101558.59;6394489;22;45378;-72